createdAt,value
2017-05-08T00:01:05.224Z,17.25
2017-05-08T00:03:32.044Z,18.35
2017-05-08T00:05:59.244Z,18.05
2017-05-08T00:08:26.042Z,17.60
2017-05-08T00:10:52.883Z,18.92
2017-05-08T00:13:20.060Z,18.35
2017-05-08T00:15:46.893Z,16.38
2017-05-08T00:18:13.736Z,17.77
2017-05-08T00:20:40.896Z,16.90
2017-05-08T00:23:07.741Z,17.48
2017-05-08T00:25:34.556Z,16.63
2017-05-08T00:28:01.825Z,17.40
2017-05-08T00:30:28.633Z,17.68
2017-05-08T00:32:55.425Z,15.73
2017-05-08T00:35:22.517Z,16.12
2017-05-08T00:37:49.316Z,16.38
2017-05-08T00:40:16.349Z,15.97
2017-05-08T00:42:47.049Z,13.98
2017-05-08T00:45:13.907Z,15.70
2017-05-08T00:47:40.713Z,15.27
2017-05-08T00:50:07.799Z,15.25
2017-05-08T00:52:34.659Z,14.98
2017-05-08T00:55:01.491Z,14.28
2017-05-08T00:57:28.642Z,14.32
2017-05-08T00:59:55.441Z,13.90
2017-05-08T01:02:22.279Z,14.72
2017-05-08T01:04:49.476Z,14.38
2017-05-08T01:07:16.272Z,14.97
2017-05-08T01:09:43.084Z,15.42
2017-05-08T01:12:10.161Z,15.50
2017-05-08T01:14:36.975Z,15.05
2017-05-08T01:17:03.811Z,14.72
2017-05-08T01:19:30.907Z,14.40
2017-05-08T01:21:57.734Z,16.07
2017-05-08T01:24:24.547Z,15.30
2017-05-08T01:26:51.619Z,15.82
2017-05-08T01:29:18.417Z,14.33
2017-05-08T01:31:45.230Z,14.68
2017-05-08T01:34:12.823Z,15.90
2017-05-08T01:36:39.640Z,15.67
2017-05-08T01:39:07.132Z,16.47
2017-05-08T01:41:34.632Z,14.52
2017-05-08T01:44:01.437Z,15.27
2017-05-08T01:46:28.240Z,16.57
2017-05-08T01:48:55.322Z,14.38
2017-05-08T01:51:22.116Z,13.95
2017-05-08T01:53:48.904Z,15.33
2017-05-08T01:56:16.330Z,14.92
2017-05-08T01:58:43.117Z,15.42
2017-05-08T02:01:09.960Z,13.58
2017-05-08T02:03:37.170Z,14.75
2017-05-08T02:06:03.988Z,15.40
2017-05-08T02:08:30.801Z,15.08
2017-05-08T02:10:57.896Z,15.42
2017-05-08T02:13:24.679Z,16.33
2017-05-08T02:15:51.476Z,15.55
2017-05-08T02:18:18.848Z,16.28
2017-05-08T02:20:45.651Z,14.35
2017-05-08T02:23:12.455Z,15.38
2017-05-08T02:25:39.655Z,15.55
2017-05-08T02:28:06.481Z,14.53
2017-05-08T02:30:33.282Z,14.97
2017-05-08T02:33:00.403Z,16.07
2017-05-08T02:35:27.204Z,16.07
2017-05-08T02:37:54.021Z,17.00
2017-05-08T02:40:21.399Z,17.65
2017-05-08T02:42:48.179Z,22.68
2017-05-08T02:45:15.860Z,24.62
2017-05-08T02:47:43.206Z,30.88
2017-05-08T02:50:10.024Z,18.45
2017-05-08T02:52:36.821Z,15.70
2017-05-08T02:55:04.040Z,16.18
2017-05-08T02:57:30.845Z,14.68
2017-05-08T02:59:57.684Z,13.65
2017-05-08T03:02:24.802Z,12.50
2017-05-08T03:04:51.588Z,16.70
2017-05-08T03:07:18.376Z,16.00
2017-05-08T03:09:45.453Z,12.67
2017-05-08T03:12:12.237Z,12.85
2017-05-08T03:14:39.077Z,13.77
2017-05-08T03:17:06.537Z,11.90
2017-05-08T03:19:33.395Z,12.87
2017-05-08T03:22:00.225Z,11.40
2017-05-08T03:24:27.916Z,11.63
2017-05-08T03:26:54.700Z,12.23
2017-05-08T03:29:21.551Z,11.25
2017-05-08T03:31:48.695Z,9.87
2017-05-08T03:34:15.497Z,9.92
2017-05-08T03:36:42.370Z,10.28
2017-05-08T03:39:09.512Z,10.70
2017-05-08T03:41:36.310Z,9.40
2017-05-08T03:44:03.135Z,9.95
2017-05-08T03:46:30.348Z,8.50
2017-05-08T03:48:57.151Z,9.65
2017-05-08T03:51:23.952Z,8.90
2017-05-08T03:53:51.183Z,8.28
2017-05-08T03:56:17.996Z,8.17
2017-05-08T03:58:44.823Z,8.35
2017-05-08T04:01:11.889Z,8.23
2017-05-08T04:03:38.740Z,7.43
2017-05-08T04:06:05.594Z,7.65
2017-05-08T04:08:32.840Z,8.37
2017-05-08T04:11:00.127Z,7.30
2017-05-08T04:13:26.916Z,7.87
2017-05-08T04:15:54.172Z,7.78
2017-05-08T04:18:20.956Z,7.75
2017-05-08T04:20:47.769Z,8.73
2017-05-08T04:23:15.099Z,8.17
2017-05-08T04:25:41.888Z,7.93
2017-05-08T04:28:08.676Z,8.10
2017-05-08T04:30:36.069Z,8.10
2017-05-08T04:33:02.873Z,8.08
2017-05-08T04:35:29.668Z,7.43
2017-05-08T04:37:57.201Z,8.20
2017-05-08T04:40:24.003Z,7.83
2017-05-08T04:42:50.801Z,9.35
2017-05-08T04:45:17.900Z,7.25
2017-05-08T04:47:45.712Z,7.43
2017-05-08T04:50:12.783Z,8.90
2017-05-08T04:52:40.211Z,8.05
2017-05-08T04:55:07.001Z,8.15
2017-05-08T04:57:34.817Z,7.50
2017-05-08T05:00:01.868Z,7.57
2017-05-08T05:02:28.639Z,8.58
2017-05-08T05:04:55.424Z,7.93
2017-05-08T05:07:22.571Z,8.30
2017-05-08T05:09:49.741Z,8.28
2017-05-08T05:12:18.440Z,7.23
2017-05-08T05:14:45.621Z,9.38
2017-05-08T05:17:12.422Z,7.87
2017-05-08T05:19:39.241Z,8.98
2017-05-08T05:22:06.310Z,7.88
2017-05-08T05:24:33.170Z,8.80
2017-05-08T05:27:00.492Z,9.40
2017-05-08T05:29:28.650Z,9.53
2017-05-08T05:31:55.501Z,9.20
2017-05-08T05:34:22.271Z,7.57
2017-05-08T05:36:49.520Z,8.70
2017-05-08T05:39:16.363Z,8.92
2017-05-08T05:41:43.176Z,8.40
2017-05-08T05:44:10.450Z,9.67
2017-05-08T05:46:37.237Z,9.23
2017-05-08T05:49:04.077Z,9.15
2017-05-08T05:51:31.157Z,8.45
2017-05-08T05:53:57.951Z,8.38
2017-05-08T05:56:24.741Z,8.93
2017-05-08T05:58:51.822Z,8.33
2017-05-08T06:01:18.631Z,7.27
2017-05-08T06:03:45.433Z,8.50
2017-05-08T06:06:12.813Z,6.88
2017-05-08T06:08:39.622Z,6.82
2017-05-08T06:11:06.408Z,6.27
2017-05-08T06:13:33.630Z,6.40
2017-05-08T06:16:00.421Z,6.40
2017-05-08T06:18:27.310Z,6.30
2017-05-08T06:20:54.993Z,6.43
2017-05-08T06:23:21.800Z,6.07
2017-05-08T06:25:48.614Z,6.82
2017-05-08T06:28:15.844Z,6.63
2017-05-08T06:30:42.621Z,7.60
2017-05-08T06:33:09.419Z,7.62
2017-05-08T06:35:36.943Z,8.22
2017-05-08T06:38:03.754Z,7.32
2017-05-08T06:40:30.514Z,8.27
2017-05-08T06:42:58.001Z,6.57
2017-05-08T06:45:24.791Z,7.73
2017-05-08T06:47:51.579Z,6.63
2017-05-08T06:50:18.745Z,7.42
2017-05-08T06:52:45.608Z,7.48
2017-05-08T06:55:12.439Z,8.10
2017-05-08T06:57:40.001Z,7.27
2017-05-08T07:00:07.687Z,9.00
2017-05-08T07:02:34.447Z,8.57
2017-05-08T07:05:01.535Z,8.83
2017-05-08T07:07:28.535Z,8.78
2017-05-08T07:09:55.295Z,8.25
2017-05-08T07:12:22.357Z,9.33
2017-05-08T07:14:49.158Z,7.73
2017-05-08T07:17:15.959Z,6.47
2017-05-08T07:19:43.208Z,6.72
2017-05-08T07:22:10.026Z,8.33
2017-05-08T07:24:37.576Z,9.42
2017-05-08T07:27:05.050Z,7.23
2017-05-08T07:29:31.836Z,8.48
2017-05-08T07:31:58.642Z,8.15
2017-05-08T07:34:25.871Z,7.90
2017-05-08T07:36:52.659Z,7.02
2017-05-08T07:39:19.461Z,7.47
2017-05-08T07:41:46.712Z,8.12
2017-05-08T07:44:13.617Z,7.52
2017-05-08T07:46:40.430Z,7.28
2017-05-08T07:49:07.595Z,7.47
2017-05-08T07:51:34.844Z,8.67
2017-05-08T07:54:01.887Z,6.05
2017-05-08T07:56:29.105Z,5.62
2017-05-08T07:58:55.932Z,6.77
2017-05-08T08:01:22.760Z,6.70
2017-05-08T08:03:49.828Z,6.55
2017-05-08T08:06:16.859Z,6.75
2017-05-08T08:08:43.655Z,7.82
2017-05-08T08:11:11.065Z,7.40
2017-05-08T08:13:37.888Z,9.25
2017-05-08T08:16:05.167Z,7.17
2017-05-08T08:18:32.280Z,6.78
2017-05-08T08:20:59.068Z,7.58
2017-05-08T08:23:25.875Z,7.07
2017-05-08T08:25:52.953Z,7.18
2017-05-08T08:28:19.773Z,7.83
2017-05-08T08:30:46.579Z,7.10
2017-05-08T08:33:14.113Z,6.60
2017-05-08T08:35:40.941Z,7.57
2017-05-08T08:38:07.725Z,7.43
2017-05-08T08:40:34.813Z,6.22
2017-05-08T08:43:01.632Z,7.68
2017-05-08T08:45:28.454Z,6.73
2017-05-08T08:47:55.559Z,5.52
2017-05-08T08:50:22.332Z,5.20
2017-05-08T08:52:49.891Z,5.60
2017-05-08T08:57:53.965Z,6.07
2017-05-08T09:00:21.024Z,6.48
2017-05-08T09:02:47.799Z,5.45
2017-05-08T09:05:14.580Z,5.22
2017-05-08T09:07:43.241Z,6.50
2017-05-08T09:10:10.068Z,4.47
2017-05-08T09:12:37.121Z,6.57
2017-05-08T09:15:04.207Z,5.98
2017-05-08T09:17:31.463Z,5.82
2017-05-08T09:19:58.265Z,6.28
2017-05-08T09:22:25.529Z,5.83
2017-05-08T09:24:52.306Z,4.47
2017-05-08T09:27:19.116Z,5.70
2017-05-08T09:29:46.925Z,5.10
2017-05-08T09:32:13.781Z,6.00
2017-05-08T09:34:40.625Z,5.93
2017-05-08T09:37:07.742Z,5.83
2017-05-08T09:39:35.168Z,6.42
2017-05-08T09:42:01.930Z,6.50
2017-05-08T09:44:29.509Z,7.07
2017-05-08T09:46:56.288Z,5.82
2017-05-08T09:49:23.296Z,5.95
2017-05-08T09:51:50.369Z,6.57
2017-05-08T09:54:17.196Z,5.67
2017-05-08T09:56:44.096Z,5.78
2017-05-08T09:59:11.453Z,7.48
2017-05-08T10:01:38.292Z,5.63
2017-05-08T10:04:05.177Z,6.67
2017-05-08T10:06:33.501Z,5.18
2017-05-08T10:09:00.356Z,6.27
2017-05-08T10:11:27.239Z,6.18
2017-05-08T10:13:54.396Z,5.75
2017-05-08T10:16:21.228Z,5.45
2017-05-08T10:18:48.362Z,4.93
2017-05-08T10:21:15.485Z,5.25
2017-05-08T10:23:42.280Z,4.80
2017-05-08T10:26:10.453Z,5.80
2017-05-08T10:28:37.556Z,5.40
2017-05-08T10:31:04.340Z,5.25
2017-05-08T10:33:31.544Z,7.27
2017-05-08T10:35:58.677Z,6.52
2017-05-08T10:38:25.489Z,10.63
2017-05-08T10:40:52.338Z,5.78
2017-05-08T10:43:19.505Z,5.72
2017-05-08T10:45:46.286Z,4.75
2017-05-08T10:48:13.338Z,5.58
2017-05-08T10:50:40.393Z,5.48
2017-05-08T10:53:07.163Z,5.67
2017-05-08T10:55:33.909Z,6.20
2017-05-08T10:58:01.165Z,6.32
2017-05-08T11:00:27.918Z,6.70
2017-05-08T11:02:54.696Z,5.18
2017-05-08T11:05:22.001Z,6.07
2017-05-08T11:07:49.705Z,5.33
2017-05-08T11:10:16.465Z,5.78
2017-05-08T11:12:44.094Z,4.85
2017-05-08T11:15:11.471Z,4.58
2017-05-08T11:17:38.232Z,6.65
2017-05-08T11:20:07.006Z,6.93
2017-05-08T11:22:33.816Z,5.25
2017-05-08T11:25:00.578Z,5.20
2017-05-08T11:27:28.086Z,6.63
2017-05-08T11:29:54.845Z,9.90
2017-05-08T11:32:21.633Z,6.93
2017-05-08T11:34:49.154Z,6.87
2017-05-08T11:37:15.909Z,6.38
2017-05-08T11:39:42.663Z,7.62
2017-05-08T11:42:10.256Z,5.33
2017-05-08T11:44:37.014Z,5.58
2017-05-08T11:47:03.764Z,6.00
2017-05-08T11:49:30.801Z,8.10
2017-05-08T11:51:57.553Z,6.32
2017-05-08T11:54:24.318Z,4.25
2017-05-08T11:56:51.352Z,7.05
2017-05-08T11:59:18.110Z,6.32
2017-05-08T12:01:44.866Z,9.23
2017-05-08T12:04:12.240Z,9.70
2017-05-08T12:06:39.632Z,5.48
2017-05-08T12:09:07.328Z,9.08
2017-05-08T12:11:34.365Z,8.07
2017-05-08T12:14:01.463Z,6.87
2017-05-08T12:16:28.226Z,7.07
2017-05-08T12:18:55.650Z,6.83
2017-05-08T12:21:22.396Z,6.12
2017-05-08T12:23:49.154Z,6.37
2017-05-08T12:26:16.269Z,6.90
2017-05-08T12:28:43.020Z,6.95
2017-05-08T12:31:09.781Z,6.28
2017-05-08T12:33:36.832Z,6.70
2017-05-08T12:36:03.584Z,5.90
2017-05-08T12:38:30.337Z,6.82
2017-05-08T12:40:57.383Z,7.22
2017-05-08T12:43:24.135Z,7.13
2017-05-08T12:45:50.886Z,7.47
2017-05-08T12:48:18.173Z,7.42
2017-05-08T12:50:44.937Z,8.18
2017-05-08T12:53:11.702Z,7.52
2017-05-08T12:55:38.761Z,9.75
2017-05-08T12:58:05.509Z,7.33
2017-05-08T13:00:33.205Z,9.12
2017-05-08T13:03:00.274Z,8.73
2017-05-08T13:05:27.428Z,9.60
2017-05-08T13:07:54.425Z,9.15
2017-05-08T13:10:21.648Z,9.18
2017-05-08T13:12:48.397Z,9.70
2017-05-08T13:15:15.143Z,9.73
2017-05-08T13:17:42.197Z,9.08
2017-05-08T13:20:08.949Z,10.78
2017-05-08T13:22:36.362Z,9.50
2017-05-08T13:25:03.439Z,9.87
2017-05-08T13:27:30.454Z,10.85
2017-05-08T13:29:57.221Z,10.33
2017-05-08T13:32:24.364Z,8.75
2017-05-08T13:34:51.129Z,9.50
2017-05-08T13:37:17.893Z,11.87
2017-05-08T13:39:45.188Z,10.90
2017-05-08T13:42:11.951Z,11.72
2017-05-08T13:44:38.712Z,10.63
2017-05-08T13:47:05.750Z,9.58
2017-05-08T13:49:32.504Z,9.93
2017-05-08T13:51:59.256Z,10.87
2017-05-08T13:54:28.837Z,11.50
2017-05-08T13:56:55.584Z,10.40
2017-05-08T13:59:22.357Z,10.58
2017-05-08T14:01:49.388Z,9.17
2017-05-08T14:04:16.136Z,9.50
2017-05-08T14:06:42.877Z,8.08
2017-05-08T14:09:09.925Z,9.23
2017-05-08T14:11:36.663Z,9.25
2017-05-08T14:14:03.416Z,9.88
2017-05-08T14:16:31.033Z,9.90
2017-05-08T14:18:57.790Z,11.30
2017-05-08T14:21:24.565Z,11.15
2017-05-08T14:23:52.799Z,9.55
2017-05-08T14:26:19.556Z,12.23
2017-05-08T14:28:46.306Z,10.55
2017-05-08T14:31:13.586Z,12.50
2017-05-08T14:33:40.349Z,11.10
2017-05-08T14:36:07.117Z,10.63
2017-05-08T14:38:36.203Z,11.03
2017-05-08T14:41:03.509Z,9.85
2017-05-08T14:43:30.261Z,9.95
2017-05-08T14:45:58.817Z,9.48
2017-05-08T14:48:25.957Z,9.25
2017-05-08T14:50:52.941Z,8.55
2017-05-08T14:53:20.088Z,10.15
2017-05-08T14:55:46.836Z,9.72
2017-05-08T14:58:13.589Z,9.28
2017-05-08T15:00:40.813Z,9.10
2017-05-08T15:03:07.571Z,8.88
2017-05-08T15:05:34.328Z,7.68
2017-05-08T15:08:01.385Z,8.17
2017-05-08T15:10:28.128Z,9.58
2017-05-08T15:12:54.882Z,8.92
2017-05-08T15:15:21.920Z,7.10
2017-05-08T15:17:48.667Z,8.10
2017-05-08T15:20:16.320Z,6.17
2017-05-08T15:22:43.356Z,6.18
2017-05-08T15:25:10.109Z,7.22
2017-05-08T15:27:37.245Z,5.82
2017-05-08T15:30:04.356Z,5.72
2017-05-08T15:32:31.097Z,8.97
2017-05-08T15:34:57.849Z,9.20
2017-05-08T15:37:25.033Z,6.53
2017-05-08T15:39:51.783Z,6.15
2017-05-08T15:42:18.528Z,5.90
2017-05-08T15:44:45.582Z,6.40
2017-05-08T15:47:12.337Z,6.27
2017-05-08T15:49:39.092Z,5.78
2017-05-08T15:52:06.168Z,5.80
2017-05-08T15:54:33.205Z,6.33
2017-05-08T15:56:59.947Z,6.07
2017-05-08T15:59:27.055Z,6.72
2017-05-08T16:01:53.793Z,6.37
2017-05-08T16:04:20.546Z,6.98
2017-05-08T16:09:26.127Z,5.92
2017-05-08T16:11:53.209Z,6.02
2017-05-08T16:14:19.947Z,5.60
2017-05-08T16:16:46.693Z,7.22
2017-05-08T16:19:13.755Z,6.45
2017-05-08T16:21:40.504Z,7.48
2017-05-08T16:24:07.255Z,6.62
2017-05-08T16:26:34.965Z,6.70
2017-05-08T16:29:01.731Z,6.72
2017-05-08T16:31:28.914Z,6.53
2017-05-08T16:33:56.060Z,7.55
2017-05-08T16:36:22.808Z,6.60
2017-05-08T16:38:49.973Z,6.57
2017-05-08T16:41:18.145Z,9.07
2017-05-08T16:43:44.896Z,9.32
2017-05-08T16:46:11.632Z,8.77
2017-05-08T16:48:38.751Z,7.47
2017-05-08T16:51:05.509Z,7.55
2017-05-08T16:53:32.257Z,7.88
2017-05-08T16:56:00.296Z,7.87
2017-05-08T16:58:27.045Z,8.20
2017-05-08T17:00:54.060Z,7.82
2017-05-08T17:03:21.447Z,9.17
2017-05-08T17:05:48.209Z,8.65
2017-05-08T17:08:16.164Z,7.55
2017-05-08T17:10:44.100Z,7.60
2017-05-08T17:13:10.869Z,10.00
2017-05-08T17:15:37.621Z,8.40
2017-05-08T17:18:04.668Z,7.77
2017-05-08T17:20:31.733Z,9.37
2017-05-08T17:22:58.487Z,7.68
2017-05-08T17:25:25.541Z,8.57
2017-05-08T17:27:52.284Z,8.20
2017-05-08T17:30:19.463Z,7.62
2017-05-08T17:32:46.501Z,7.55
2017-05-08T17:35:13.785Z,7.45
2017-05-08T17:37:40.541Z,7.67
2017-05-08T17:40:07.657Z,9.83
2017-05-08T17:42:34.410Z,8.52
2017-05-08T17:45:01.209Z,10.75
2017-05-08T17:47:28.277Z,8.53
2017-05-08T17:49:55.040Z,10.10
2017-05-08T17:52:21.797Z,6.55
2017-05-08T17:54:49.225Z,7.63
2017-05-08T17:57:27.367Z,7.62
2017-05-08T17:59:54.392Z,6.50
2017-05-08T18:02:21.140Z,7.67
2017-05-08T18:04:47.875Z,6.93
2017-05-08T18:07:14.936Z,8.43
2017-05-08T18:09:41.684Z,6.73
2017-05-08T18:12:08.433Z,7.40
2017-05-08T18:14:35.467Z,7.92
2017-05-08T18:17:02.688Z,8.85
2017-05-08T18:19:29.850Z,9.18
2017-05-08T18:21:56.879Z,8.37
2017-05-08T18:24:23.630Z,8.30
2017-05-08T18:26:50.424Z,7.37
2017-05-08T18:29:20.212Z,7.37
2017-05-08T18:31:48.387Z,7.47
2017-05-08T18:34:18.029Z,8.07
2017-05-08T18:36:46.704Z,7.03
2017-05-08T18:39:15.066Z,6.95
2017-05-08T18:41:42.099Z,5.67
2017-05-08T18:44:09.208Z,5.57
2017-05-08T18:46:42.309Z,6.47
2017-05-08T18:49:09.820Z,5.17
2017-05-08T18:51:36.896Z,4.62
2017-05-08T18:54:04.233Z,3.78
2017-05-08T18:56:33.045Z,4.13
2017-05-08T18:58:59.963Z,3.62
2017-05-08T19:01:28.783Z,3.78
2017-05-08T19:03:58.507Z,4.57
2017-05-08T19:06:25.901Z,4.48
2017-05-08T19:08:54.107Z,4.32
2017-05-08T19:11:22.829Z,3.77
2017-05-08T19:13:50.959Z,3.67
2017-05-08T19:16:18.002Z,4.93
2017-05-08T19:18:47.534Z,3.67
2017-05-08T19:21:17.624Z,3.47
2017-05-08T19:26:27.974Z,3.30
2017-05-08T19:28:58.271Z,3.62
2017-05-08T19:31:27.794Z,2.77
2017-05-08T19:33:55.795Z,2.87
2017-05-08T19:36:26.788Z,2.63
2017-05-08T19:38:54.702Z,2.43
2017-05-08T19:41:22.400Z,2.52
2017-05-08T19:43:51.673Z,2.53
2017-05-08T19:46:18.506Z,2.83
2017-05-08T19:48:47.768Z,1.72
2017-05-08T19:51:15.077Z,2.10
2017-05-08T19:53:43.555Z,2.02
2017-05-08T19:56:11.308Z,2.63
2017-05-08T20:01:12.275Z,2.48
2017-05-08T20:03:43.888Z,2.50
2017-05-08T20:06:11.203Z,2.72
2017-05-08T20:08:38.093Z,2.70
2017-05-08T20:11:07.616Z,2.20
2017-05-08T20:13:35.312Z,2.00
2017-05-08T20:18:35.675Z,2.50
2017-05-08T20:21:03.792Z,2.63
2017-05-08T20:23:30.620Z,1.87
2017-05-08T20:26:02.042Z,2.22
2017-05-08T20:28:33.987Z,2.15
2017-05-08T20:31:05.435Z,2.83
2017-05-08T20:33:35.120Z,2.48
2017-05-08T20:36:07.752Z,2.58
2017-05-08T20:38:35.345Z,2.00
2017-05-08T20:41:06.658Z,2.37
2017-05-08T20:43:35.921Z,2.60
2017-05-08T20:46:04.407Z,1.98
2017-05-08T20:48:39.621Z,2.20
2017-05-08T20:53:44.112Z,2.37
2017-05-08T20:56:12.377Z,2.20
2017-05-08T20:58:42.332Z,1.83
2017-05-08T21:01:10.588Z,2.75
2017-05-08T21:06:14.676Z,1.73
2017-05-08T21:08:42.439Z,2.22
2017-05-08T21:11:11.108Z,3.07
2017-05-08T21:13:39.192Z,2.17
2017-05-08T21:16:07.233Z,2.58
2017-05-08T21:18:35.104Z,2.37
2017-05-08T21:21:03.385Z,2.72
2017-05-08T21:23:30.921Z,2.42
2017-05-08T21:25:58.975Z,2.57
2017-05-08T21:28:27.028Z,2.00
2017-05-08T21:30:56.288Z,2.17
2017-05-08T21:33:24.105Z,2.33
2017-05-08T21:35:52.385Z,2.20
2017-05-08T21:38:23.518Z,2.92
2017-05-08T21:40:52.365Z,2.22
2017-05-08T21:43:21.217Z,2.62
2017-05-08T21:45:48.483Z,2.83
2017-05-08T21:48:20.508Z,2.85
2017-05-08T21:50:49.317Z,2.67
2017-05-08T21:53:17.951Z,2.00
2017-05-08T21:55:45.004Z,2.60
2017-05-08T21:58:15.098Z,2.02
2017-05-08T22:00:42.894Z,2.62
2017-05-08T22:03:12.662Z,2.50
2017-05-08T22:05:44.577Z,2.43
2017-05-08T22:08:13.515Z,2.43
2017-05-08T22:10:41.233Z,2.78
2017-05-08T22:13:09.145Z,2.67
2017-05-08T22:15:38.847Z,2.13
2017-05-08T22:18:07.487Z,2.50
2017-05-08T22:20:36.831Z,2.18
2017-05-08T22:23:09.319Z,2.10
2017-05-08T22:25:38.223Z,1.95
2017-05-08T22:28:05.094Z,2.63
2017-05-08T22:30:32.238Z,3.07
2017-05-08T22:32:59.927Z,1.97
2017-05-08T22:35:26.937Z,2.32
2017-05-08T22:37:54.531Z,1.65
2017-05-08T22:40:23.169Z,2.22
2017-05-08T22:42:50.778Z,2.12
2017-05-08T22:45:22.386Z,2.00
2017-05-08T22:50:28.635Z,2.12
2017-05-08T22:52:57.037Z,2.07
2017-05-08T22:55:24.144Z,2.52
2017-05-08T22:57:57.568Z,1.97
2017-05-08T23:00:25.416Z,2.25
2017-05-08T23:02:54.557Z,2.63
2017-05-08T23:05:22.093Z,2.00
2017-05-08T23:07:50.860Z,2.50
2017-05-08T23:10:19.432Z,2.87
2017-05-08T23:12:48.004Z,2.13
2017-05-08T23:15:15.138Z,2.60
2017-05-08T23:17:41.992Z,2.28
2017-05-08T23:20:10.286Z,2.25
2017-05-08T23:22:42.961Z,2.17
2017-05-08T23:25:11.758Z,2.37
2017-05-08T23:27:44.072Z,2.03
2017-05-08T23:30:11.233Z,2.03
2017-05-08T23:32:47.615Z,2.00
2017-05-08T23:35:16.206Z,2.58
2017-05-08T23:37:42.988Z,2.60
2017-05-08T23:40:09.824Z,2.37
2017-05-08T23:42:38.206Z,2.30
2017-05-08T23:45:07.358Z,2.40
2017-05-08T23:47:39.487Z,2.62
2017-05-08T23:50:07.422Z,2.28
2017-05-08T23:52:36.620Z,2.12
2017-05-08T23:55:04.369Z,2.17
2017-05-08T23:57:31.779Z,2.20
